Tiempo atmosférico en la estación meteorológica de Leciñena, Zaragoza (405 m.)



Fecha
DESCASC
Temp. máxima en grados centígrados (hora)
DESCASC
Temp. mínima en grados centígrados (hora)
DESCASC
Temp. media en grados centígrados
DESCASC
Racha de viento máxima en m/sg (hora)
DESCASC
Velocidad máxima media en intervalos de 10 minutos(hora)
DESCASC
Precipitaciones diarias en mm
DESCASC
Precipitaciones de 00:00 a 06:00 en mm
DESCASC
Precipitaciones de 06:00 a 12:00 en mm
DESCASC
Precipitaciones de 12:00 a 18:00 en mm
DESCASC
Precipitaciones de 18:00 a 24:00 en mm
DESCASC
25-01-2020 10.9 (16:30) 6.8 (09:00) 8.8 8.33 (23:30) 4.72 (15:00) 9.2 0 0 0 9.2
24-01-2020 11.7 (14:30) 2.2 (08:10) 6.9 6.11 (00:50) 3.06 (00:40) 0.2 0 0.2 0 0
23-01-2020 8.8 (13:40) 4.7 (05:30) 6.8 8.33 (15:40) 5 (15:40) 2.6 0.4 2.2 0 0
22-01-2020 10.2 (15:00) 3.2 (00:00) 6.7 15.83 (00:20) 8.61 (00:20) 4.2 2.4 0 0 1.8
21-01-2020 10.3 (16:40) 0.5 (00:00) 5.4 18.33 (23:10) 8.61 (21:30) 29.4 0.4 10.6 4.4 14
20-01-2020 5.9 (14:50) -4.1 (-00:0) 0.9 4.72 (13:30) 2.78 (13:30) 0 0 0 0 0
19-01-2020 9.3 (15:50) -2.6 (-00:0) 3.4 5.83 (16:10) 3.33 (16:10) 1.8 1.2 0.4 0 0.2
18-01-2020 11.2 (14:20) -0.6 (-00:0) 5.3 9.44 (22:20) 5.83 (22:40) 3 0 0 0 3
17-01-2020 15.3 (13:30) 2.1 (00:00) 8.7 13.33 (14:40) 8.06 (14:50) 0.4 0.2 0.2 0 0
16-01-2020 15.6 (14:10) -1.7 (-00:0) 7 5.28 (16:20) 2.78 (16:30) 0 0 0 0 0
15-01-2020 13.6 (15:20) -3.7 (-00:0) 5 4.72 (15:00) 3.06 (15:00) 0 0 0 0 0
14-01-2020 11.2 (14:50) -5.4 (-00:0) 2.9 5 (13:30) 3.06 (13:30) 0 0 0 0 0
13-01-2020 5.7 (16:10) -5.4 (-00:0) 0.1 3.61 (17:00) 1.94 (17:00) 0.2 0 0.2 0 0
12-01-2020 7.2 (16:40) -3.4 (23:30) 1.9 3.33 (12:30) 2.22 (12:30) 0 0 0 0 0
11-01-2020 11.6 (15:50) -2.4 (-00:0) 4.6 5.83 (14:20) 3.33 (14:20) 0 0 0 0 0
10-01-2020 11.1 (14:30) -0.5 (-00:0) 5.3 12.78 (11:20) 7.78 (11:20) 0.6 0.6 0 0 0
09-01-2020 7.4 (14:30) -0.5 (-00:0) 3.5 3.89 (14:30) 2.5 (15:10) 0.2 0 0.2 0 0
08-01-2020 5.5 (14:50) 0 (00:00) 2.8 3.06 (21:30) 1.67 (21:30) 0.2 0.2 0 0 0
07-01-2020 4.6 (16:10) 0.3 (00:00) 2.4 2.5 (16:20) 1.67 (17:10) 0.2 0.2 0 0 0
06-01-2020 2.4 (15:10) -2.6 (-00:0) -0.1 2.5 (21:50) 1.67 (22:50) 0.2 0 0.2 0 0
05-01-2020 11.3 (15:50) -1.8 (-00:0) 4.8 3.61 (12:30) 2.22 (12:30) 0.2 0 0.2 0 0
04-01-2020 13.3 (15:30) -1.1 (-00:0) 6.1 6.67 (16:10) 4.17 (16:00) 0.2 0 0.2 0 0
03-01-2020 5.8 (15:40) -0.5 (-00:0) 2.7 3.89 (12:20) 2.5 (12:10) 0 0 0 0 0
02-01-2020 2.4 (16:00) -1.2 (-00:0) 0.6 3.61 (15:20) 1.11 (11:40) 0.2 0 0.2 0 0
01-01-2020 2.3 (15:20) 0.2 (00:00) 1.2 3.61 (04:10) 1.67 (04:10) 0 0 0 0 0
31-12-2019 3 (15:20) 1.4 (00:00) 2.2 2.78 (18:50) 1.39 (14:30) 0.2 0 0.2 0 0
30-12-2019 -- (--) -- (--) -- -- (--) -- (--) -- 0.2 0 0 --
29-12-2019 3.3 (16:30) -0.6 (-00:0) 1.3 3.06 (16:10) 2.22 (19:00) 0.2 0.2 0 0 0
28-12-2019 5.5 (16:40) -3.5 (-00:0) 1 2.22 (13:40) 1.39 (01:30) 0 0 0 0 0

Gráficas

Temp. máximas Temp. mínimas Temp. medias Precipitaciones Rachas de viento máximas Velocidades máximas media en intervalos de 10 minutos

Datos horarios

Fecha y hora oficial Temperatura (ºC) Velocidad del viento (km/h) Dirección del viento Racha (km/h) Dirección de racha Precipitación (mm) Presión (hPa) Tendencia (hPa) Humedad (%)
2020-01-26 23:00:00 2.7 5 Sur 9 Sur 0 -- -- 95
2020-01-26 22:00:00 2.9 0 Calma 6 Sur 0 -- -- 94
2020-01-26 21:00:00 5.8 5 Sur 7 Sur 0 -- -- 86
2020-01-26 20:00:00 5.7 6 Sur 8 Sur 0 -- -- 87
2020-01-26 19:00:00 6.6 4 Sur 8 Sudoeste 0 -- -- 85
2020-01-26 18:00:00 8.8 3 Noroeste 18 Norte 0 -- -- 77
2020-01-26 17:00:00 11.9 10 Noroeste 24 Norte 0 -- -- 65
2020-01-26 16:00:00 12.9 13 Noroeste 24 Norte 0 -- -- 64
2020-01-26 15:00:00 11.8 13 Norte 24 Norte 0 -- -- 72
2020-01-26 14:00:00 11.7 13 Noroeste 30 Noroeste 0 -- -- 74
2020-01-26 13:00:00 11.4 17 Noroeste 27 Noroeste 0 -- -- 79
2020-01-26 12:00:00 10.7 11 Noroeste 16 Noroeste 0 -- -- 86
2020-01-26 11:00:00 8.4 6 Noroeste 12 Noroeste 0 -- -- 96
2020-01-26 10:00:00 7 2 Sudoeste 5 Sudoeste 0 -- -- 99
2020-01-26 09:00:00 6 0 Calma 2 Sudoeste 0 -- -- 99
2020-01-26 08:00:00 6 2 Noroeste 7 Norte 0 -- -- 99
2020-01-26 07:00:00 5.8 2 Norte 5 Norte 0 -- -- 99
2020-01-26 06:00:00 6 0 Calma 4 Norte 0 -- -- 99
2020-01-26 05:00:00 6.8 3 Norte 5 Norte 0 -- -- 98
2020-01-26 04:00:00 7.2 3 Nordeste 10 Norte 0.2 -- -- 98
2020-01-26 03:00:00 7.3 4 Norte 8 Norte 0 -- -- 98
2020-01-26 02:00:00 7.6 2 Este 14 Este 0.8 -- -- 97
2020-01-26 01:00:00 7.7 4 Este 18 Nordeste 2.4 -- -- 97
2020-01-26 00:00:00 8.1 12 Norte 30 Sudeste 4.8 -- -- 96
2020-01-25 23:00:00 8.5 9 Sudeste 21 Sudeste 0.8 -- -- 94
2020-01-25 22:00:00 8.5 6 Sudeste 20 Sudeste 2.4 -- -- 95
2020-01-25 21:00:00 8.9 8 Sudeste 18 Sudeste 0.6 -- -- 91
2020-01-25 20:00:00 9.2 6 Sudeste 19 Sudeste 0.6 -- -- 89
2020-01-25 19:00:00 9.8 13 Sudeste 24 Sudeste 0 -- -- 86
2020-01-25 18:00:00 10.1 7 Sudeste 18 Sudeste 0 -- -- 85
2020-01-25 17:00:00 10.7 10 Sudeste 25 Sudeste 0 -- -- 81
2020-01-25 16:00:00 10.6 14 Sudeste 24 Sudeste 0 -- -- 82
2020-01-25 15:00:00 10.3 17 Sudeste 26 Sudeste 0 -- -- 83
2020-01-25 14:00:00 10.7 13 Sudeste 26 Sudeste 0 -- -- 82
2020-01-25 13:00:00 9.5 10 Sudeste 17 Sudeste 0 -- -- 87
2020-01-25 12:00:00 8.6 6 Sudeste 14 Sudeste 0 -- -- 92
2020-01-25 11:00:00 8.2 3 Sudoeste 13 Sur 0 -- -- 91
2020-01-25 10:00:00 7.6 7 Sur 19 Sur 0 -- -- 92
2020-01-25 09:00:00 6.8 5 Sudoeste 14 Sur 0 -- -- 94
2020-01-25 08:00:00 7.4 7 Sudoeste 15 Sur 0 -- -- 92
2020-01-25 07:00:00 7.2 4 Sudoeste 10 Sudeste 0 -- -- 92
2020-01-25 06:00:00 7.1 0 Calma 13 Sur 0 -- -- 92
2020-01-25 05:00:00 7.1 4 Oeste 9 Oeste 0 -- -- 91
2020-01-25 04:00:00 7.4 6 Sudeste 12 Sur 0 -- -- 90
2020-01-25 03:00:00 7.5 10 Sur 19 Sur 0 -- -- 93
2020-01-25 02:00:00 7.6 4 Sudoeste 12 Sudoeste 0 -- -- 93
2020-01-25 01:00:00 7.8 4 Sudoeste 12 Sudoeste 0 -- -- 93
2020-01-25 00:00:00 6.9 2 Norte 5 Sudoeste 0 -- -- 98
2020-01-24 23:00:00 5.8 0 Calma 3 Sur 0 -- -- 99
2020-01-24 22:00:00 6.1 0 Calma 4 Sur 0 -- -- 98
2020-01-24 21:00:00 5.8 0 Calma 5 Sudoeste 0 -- -- 97
2020-01-24 20:00:00 5.6 0 Calma 6 Nordeste 0 -- -- 97
2020-01-24 19:00:00 7 3 Sudoeste 6 Sudoeste 0 -- -- 95
2020-01-24 18:00:00 8.8 3 Sudoeste 4 Sudoeste 0 -- -- 91
2020-01-24 17:00:00 9.8 2 Sudoeste 8 Sudoeste 0 -- -- 89
2020-01-24 16:00:00 10.7 5 Sudoeste 13 Oeste 0 -- -- 86
2020-01-24 15:00:00 11.4 3 Norte 11 Noroeste 0 -- -- 79
2020-01-24 14:00:00 10.6 6 Nordeste 11 Norte 0 -- -- 83
2020-01-24 13:00:00 10.2 4 Norte 9 Nordeste 0 -- -- 83
2020-01-24 12:00:00 8 7 Nordeste 11 Nordeste 0.2 -- -- 92
2020-01-24 11:00:00 7.5 3 Este 5 Este 0 -- -- 91
2020-01-24 10:00:00 5.3 2 Oeste 5 Sudoeste 0 -- -- 99
2020-01-24 09:00:00 3 2 Oeste 8 Este 0 -- -- 99
2020-01-24 08:00:00 2.4 0 Calma 9 Sur 0 -- -- 97
2020-01-24 07:00:00 3.7 3 Sur 9 Oeste 0 -- -- 98
2020-01-24 06:00:00 4.8 2 Este 5 Sudoeste 0 -- -- 97
2020-01-24 05:00:00 5 3 Sudoeste 7 Sudoeste 0 -- -- 95
2020-01-24 04:00:00 6.4 2 Sudoeste 14 Sudoeste 0 -- -- 90
2020-01-24 03:00:00 6.2 3 Sur 19 Sudeste 0 -- -- 91
2020-01-24 02:00:00 6.8 4 Sur 19 Sudeste 0 -- -- 90
2020-01-24 01:00:00 7 11 Sudeste 22 Sudeste 0 -- -- 89
2020-01-24 00:00:00 6.9 4 Sur 22 Sur 0 -- -- 89
2020-01-23 23:00:00 6.9 9 Sur 22 Sudeste 0 -- -- 88
2020-01-23 22:00:00 7.1 15 Sudeste 24 Sudeste 0 -- -- 86
2020-01-23 21:00:00 7 6 Sudeste 15 Sudeste 0 -- -- 87
2020-01-23 20:00:00 6.2 0 Calma 18 Sudeste 0 -- -- 92
2020-01-23 19:00:00 6.7 11 Sudeste 24 Sudeste 0 -- -- 90
2020-01-23 18:00:00 6.9 14 Sudeste 28 Sur 0 -- -- 90
2020-01-23 17:00:00 7.6 15 Sudeste 30 Sudeste 0 -- -- 88
2020-01-23 16:00:00 7.5 15 Sudeste 30 Sudeste 0 -- -- 90
2020-01-23 15:00:00 8.1 13 Sudeste 20 Sudeste 0 -- -- 88
2020-01-23 14:00:00 8.5 3 Sudeste 6 Sudeste 0 -- -- 87
2020-01-23 13:00:00 7.6 2 Sudoeste 6 Sudoeste 0 -- -- 98
2020-01-23 12:00:00 6.6 5 Oeste 8 Sudoeste 0.4 -- -- 99
2020-01-23 11:00:00 6.2 2 Sudoeste 4 Sudoeste 1 -- -- 99
2020-01-23 10:00:00 5.8 3 Sur 4 Sur 0.2 -- -- 99
2020-01-23 09:00:00 5.2 4 Sur 5 Sur 0.4 -- -- 99
2020-01-23 08:00:00 5 0 Calma 3 Noroeste 0 -- -- 99
2020-01-23 07:00:00 5 2 Norte 6 Norte 0.2 -- -- 98
2020-01-23 06:00:00 5 3 Nordeste 5 Nordeste 0.4 -- -- 97
2020-01-23 05:00:00 4.9 0 Calma 5 Sudoeste 0 -- -- 96
2020-01-23 04:00:00 5 4 Sudoeste 7 Sudoeste 0 -- -- 96
2020-01-23 03:00:00 5.1 2 Oeste 9 Sur 0 -- -- 93
2020-01-23 02:00:00 5.2 5 Sudoeste 13 Sur 0 -- -- 95
2020-01-23 01:00:00 5.8 7 Sudeste 11 Sudeste 0 -- -- 93
2020-01-23 00:00:00 6 3 Sudeste 17 Sudeste 0 -- -- 92
2020-01-22 23:00:00 6.5 4 Este 12 Sur 0.4 -- -- 91
2020-01-22 22:00:00 6.9 4 Este 8 Sudeste 0.2 -- -- 92
2020-01-22 21:00:00 7 3 Nordeste 6 Este 0.2 -- -- 94
2020-01-22 20:00:00 7.3 4 Sudeste 12 Sudeste 0.6 -- -- 94
2020-01-22 19:00:00 7.2 4 Nordeste 8 Norte 0.4 -- -- 95
2020-01-22 18:00:00 7.9 5 Norte 9 Nordeste 0 -- -- 91
2020-01-22 17:00:00 8.2 4 Norte 9 Norte 0 -- -- 89
2020-01-22 16:00:00 8.6 5 Nordeste 10 Norte 0 -- -- 87
2020-01-22 15:00:00 10.2 6 Noroeste 11 Noroeste 0 -- -- 84
2020-01-22 14:00:00 9.1 3 Noroeste 8 Noroeste 0 -- -- 84
2020-01-22 13:00:00 7.3 3 Noroeste 13 Norte 0 -- -- 90
2020-01-22 12:00:00 7 4 Nordeste 8 Norte 0 -- -- 91
2020-01-22 11:00:00 6.7 0 Calma 6 Norte 0 -- -- 96
2020-01-22 10:00:00 4.9 2 Norte 5 Norte 0 -- -- 99
2020-01-22 09:00:00 3.6 2 Sudoeste 4 Sudoeste 0 -- -- 98
2020-01-22 08:00:00 3.2 3 Sur 8 Sur 0 -- -- 98
2020-01-22 07:00:00 4.1 0 Calma 7 Nordeste 0 -- -- 95
2020-01-22 06:00:00 5.4 3 Norte 7 Norte 0 -- -- 93
2020-01-22 05:00:00 5.9 0 Calma 13 Sur 0 -- -- 90
2020-01-22 04:00:00 6.6 7 Sur 24 Sudeste 0 -- -- 89
2020-01-22 03:00:00 6.9 13 Sudeste 32 Sudeste 0 -- -- 90
2020-01-22 02:00:00 7.1 18 Sudeste 35 Sudeste 0.2 -- -- 91
2020-01-22 01:00:00 7.2 21 Sudeste 57 Sudeste 2.2 -- -- 91
2020-01-22 00:00:00 7.9 24 Sudeste 66 Sudeste 6 -- -- 89
2020-01-21 23:00:00 8.2 28 Sudeste 57 Sudeste 6 -- -- 91
2020-01-21 22:00:00 9 30 Sudeste 53 Sur 1.8 -- -- 85
2020-01-21 21:00:00 9.9 25 Sudeste 48 Sudeste 0.2 -- -- 75
2020-01-21 20:00:00 9.9 18 Sudeste 36 Sudeste 0 -- -- 73
2020-01-21 19:00:00 10.1 10 Sudeste 47 Sudeste 0 -- -- 72
2020-01-21 18:00:00 10 23 Sudeste 56 Sudeste 0 -- -- 73
2020-01-21 17:00:00 10.2 22 Sudeste 44 Sudeste 0 -- -- 73
2020-01-21 16:00:00 8.8 11 Sudeste 33 Este 0.2 -- -- 83
2020-01-21 15:00:00 5.1 4 Nordeste 13 Nordeste 0.4 -- -- 98
2020-01-21 14:00:00 4.1 6 Nordeste 12 Este 0.6 -- -- 99
2020-01-21 13:00:00 2.7 0 Calma 9 Oeste 3.2 -- -- 98
2020-01-21 12:00:00 2.6 3 Nordeste 5 Nordeste 2.8 -- -- 98
2020-01-21 11:00:00 1.7 0 Calma 5 Sur 2.4 -- -- 98
2020-01-21 10:00:00 1.3 4 Sur 6 Sur 2.4 -- -- 97
2020-01-21 09:00:00 1.2 0 Calma 10 Nordeste 1 -- -- 96
2020-01-21 08:00:00 1.1 2 Este 10 Nordeste 1 -- -- 96
2020-01-21 07:00:00 0.7 3 Nordeste 9 Nordeste 1 -- -- 95
2020-01-21 06:00:00 1.4 4 Este 9 Este 0.4 -- -- 88
2020-01-21 05:00:00 1.8 3 Sudeste 8 Sudeste 0 -- -- 84
2020-01-21 04:00:00 1.5 2 Sur 5 Sur 0 -- -- 86
2020-01-21 03:00:00 1.2 2 Sur 4 Sur 0 -- -- 88
2020-01-21 02:00:00 1.5 2 Sur 4 Sur 0 -- -- 84
2020-01-21 01:00:00 1.5 0 Calma 12 Nordeste 0 -- -- 84
2020-01-21 00:00:00 1.9 3 Sudeste 9 Noroeste 0 -- -- 82
2020-01-20 23:00:00 1.4 3 Sudoeste 5 Sudoeste 0 -- -- 84
2020-01-20 22:00:00 1.3 0 Calma 5 Nordeste 0 -- -- 81
2020-01-20 21:00:00 0.6 0 Calma 8 Norte 0 -- -- 85
2020-01-20 20:00:00 1.7 2 Sur 7 Sudoeste 0 -- -- 80
2020-01-20 19:00:00 3.6 0 Calma 7 Sur 0 -- -- 72
2020-01-20 18:00:00 4.1 4 Noroeste 13 Norte 0 -- -- 68
2020-01-20 17:00:00 5 5 Noroeste 15 Norte 0 -- -- 65
2020-01-20 16:00:00 5.7 9 Norte 14 Norte 0 -- -- 61
2020-01-20 15:00:00 5.8 3 Norte 9 Noroeste 0 -- -- 59
2020-01-20 14:00:00 4.9 6 Norte 17 Norte 0 -- -- 62
2020-01-20 13:00:00 4.8 4 Nordeste 10 Norte 0 -- -- 64
2020-01-20 12:00:00 3.1 3 Nordeste 6 Este 0 -- -- 69
2020-01-20 11:00:00 1.7 3 Nordeste 11 Nordeste 0 -- -- 77
2020-01-20 10:00:00 1.2 4 Nordeste 9 Este 0 -- -- 73
2020-01-20 09:00:00 -1.6 0 Calma 4 Sur 0 -- -- 90
2020-01-20 08:00:00 -1.4 0 Calma 3 Nordeste 0 -- -- 88
2020-01-20 07:00:00 -2.3 0 Calma 5 Sur 0 -- -- 93
2020-01-20 06:00:00 -2.7 0 Calma 5 Sudoeste 0 -- -- 92
2020-01-20 05:00:00 -3.2 2 Sur 6 Sur 0 -- -- 90
2020-01-20 04:00:00 -4 2 Sur 6 Sur 0 -- -- 93
2020-01-20 03:00:00 -3.9 3 Sudoeste 5 Sur 0 -- -- 92
2020-01-20 02:00:00 -3.7 3 Sur 6 Sur 0 -- -- 91
2020-01-20 01:00:00 -3 4 Sur 6 Sudoeste 0 -- -- 90
2020-01-20 00:00:00 -2.3 2 Sur 6 Sur 0 -- -- 89
2020-01-19 23:00:00 -2.5 3 Sur 5 Sur 0 -- -- 93
2020-01-19 22:00:00 -1.6 4 Sur 5 Sur 0 -- -- 92
2020-01-19 21:00:00 -0.8 0 Calma 7 Sudeste 0 -- -- 85
2020-01-19 20:00:00 2.5 3 Sudoeste 15 Nordeste 0.2 -- -- 72
2020-01-19 19:00:00 5 6 Nordeste 15 Nordeste 0 -- -- 62
2020-01-19 18:00:00 7 8 Nordeste 17 Nordeste 0 -- -- 57
2020-01-19 17:00:00 8.6 4 Norte 21 Norte 0 -- -- 62
2020-01-19 16:00:00 9.3 8 Norte 17 Norte 0 -- -- 64
2020-01-19 15:00:00 8.9 4 Norte 12 Norte 0 -- -- 75
2020-01-19 14:00:00 7.7 3 Norte 10 Noroeste 0 -- -- 85
2020-01-19 13:00:00 7.7 5 Noroeste 13 Noroeste 0 -- -- 89
2020-01-19 12:00:00 7.3 3 Norte 5 Norte 0 -- -- 92
2020-01-19 11:00:00 6.3 2 Este 6 Sur 0 -- -- 98
2020-01-19 10:00:00 5.2 0 Calma 10 Nordeste 0.2 -- -- 99
2020-01-19 09:00:00 4.9 7 Norte 11 Norte 0 -- -- 98
2020-01-19 08:00:00 4.9 7 Norte 13 Norte 0 -- -- 98
2020-01-19 07:00:00 4.9 8 Nordeste 15 Nordeste 0.2 -- -- 98
2020-01-19 06:00:00 4.9 12 Nordeste 19 Norte 0.4 -- -- 99
2020-01-19 05:00:00 5.5 6 Nordeste 17 Nordeste 0.4 -- -- 98
2020-01-19 04:00:00 5.7 12 Nordeste 19 Nordeste 0 -- -- 98
2020-01-19 03:00:00 5.6 7 Norte 13 Norte 0.2 -- -- 98
2020-01-19 02:00:00 5.4 0 Calma 13 Noroeste 0.2 -- -- 97
2020-01-19 01:00:00 6.1 4 Sudeste 15 Noroeste 0 -- -- 96
2020-01-19 00:00:00 6.3 6 Sur 18 Sudeste 2 -- -- 94
2020-01-18 23:00:00 7.2 14 Sudeste 34 Sudeste 0.6 -- -- 84
2020-01-18 22:00:00 7.9 20 Sudeste 32 Sudeste 0 -- -- 78
2020-01-18 21:00:00 8.5 15 Sudeste 30 Sudeste 0 -- -- 76
2020-01-18 20:00:00 7.3 14 Sur 24 Sur 0.4 -- -- 83
2020-01-18 19:00:00 7.9 6 Sur 15 Sudeste 0 -- -- 79
2020-01-18 18:00:00 8.5 10 Sudeste 25 Sudeste 0 -- -- 70
2020-01-18 17:00:00 8.9 8 Sudeste 19 Sudeste 0 -- -- 69
2020-01-18 16:00:00 9.3 12 Sudeste 21 Sur 0 -- -- 66
2020-01-18 15:00:00 10.2 15 Sudeste 25 Sudeste 0 -- -- 63
2020-01-18 14:00:00 11.1 12 Sudeste 20 Sudeste 0 -- -- 61
2020-01-18 13:00:00 10.5 12 Sudeste 19 Sudeste 0 -- -- 63
2020-01-18 12:00:00 10.3 4 Norte 7 Norte 0 -- -- 66
2020-01-18 11:00:00 7.5 3 Nordeste 8 Noroeste 0 -- -- 77
2020-01-18 10:00:00 4.9 0 Calma 6 Sudoeste 0 -- -- 88
2020-01-18 09:00:00 2.9 0 Calma 9 Sur 0 -- -- 91
2020-01-18 08:00:00 2.5 6 Sur 9 Sudoeste 0 -- -- 92
2020-01-18 07:00:00 3.1 0 Calma 9 Sudoeste 0 -- -- 89
2020-01-18 06:00:00 3.4 4 Sur 8 Sur 0 -- -- 88
2020-01-18 05:00:00 2.5 4 Sur 7 Sudoeste 0 -- -- 92
2020-01-18 04:00:00 1.3 5 Sudoeste 8 Sur 0 -- -- 93
2020-01-18 03:00:00 -0.5 5 Sur 8 Sudoeste 0 -- -- 95
2020-01-18 02:00:00 -0.4 5 Sudoeste 10 Sudoeste 0 -- -- 94
2020-01-18 01:00:00 1 0 Calma 9 Sudoeste 0 -- -- 91
2020-01-18 00:00:00 2.1 5 Sudoeste 10 Sudoeste 0 -- -- 87
2020-01-17 23:00:00 3.4 4 Sudeste 11 Norte 0 -- -- 85
2020-01-17 22:00:00 5 2 Nordeste 18 Norte 0 -- -- 79
2020-01-17 21:00:00 5.8 11 Norte 22 Noroeste 0 -- -- 75
2020-01-17 20:00:00 5.2 2 Norte 19 Norte 0 -- -- 77
2020-01-17 19:00:00 7 12 Norte 19 Norte 0 -- -- 71
2020-01-17 18:00:00 8.5 12 Norte 27 Norte 0 -- -- 66
2020-01-17 17:00:00 10.8 14 Norte 33 Norte 0 -- -- 62
2020-01-17 16:00:00 11.8 24 Norte 36 Nordeste 0 -- -- 58
2020-01-17 15:00:00 12.6 27 Norte 48 Norte 0 -- -- 60
2020-01-17 14:00:00 13.4 14 Norte 38 Noroeste 0 -- -- 64
2020-01-17 13:00:00 14.3 21 Noroeste 33 Noroeste 0 -- -- 62
2020-01-17 12:00:00 12.1 20 Noroeste 32 Noroeste 0 -- -- 68
2020-01-17 11:00:00 10.1 13 Oeste 20 Noroeste 0 -- -- 77
2020-01-17 10:00:00 6.1 3 Sudoeste 7 Sur 0 -- -- 90
2020-01-17 09:00:00 4.9 5 Sur 12 Sudoeste 0 -- -- 92
2020-01-17 08:00:00 2.6 5 Sur 8 Sur 0.2 -- -- 95
2020-01-17 07:00:00 3.3 3 Sudoeste 8 Sudoeste 0 -- -- 95
2020-01-17 06:00:00 5.7 4 Sudoeste 8 Sudoeste 0 -- -- 95
2020-01-17 05:00:00 6.3 2 Sudoeste 6 Sur 0 -- -- 95
2020-01-17 04:00:00 5.1 3 Sur 6 Sudeste 0.2 -- -- 94
2020-01-17 03:00:00 5.5 3 Sudeste 8 Nordeste 0 -- -- 91
2020-01-17 02:00:00 4.7 3 Nordeste 6 Nordeste 0 -- -- 94
2020-01-17 01:00:00 4.4 3 Nordeste 9 Nordeste 0 -- -- 93
2020-01-17 00:00:00 4.9 0 Calma 13 Nordeste 0 -- -- 90
2020-01-16 23:00:00 3.3 3 Sudoeste 9 Norte 0 -- -- 97
2020-01-16 22:00:00 2.9 0 Calma 5 Sur 0 -- -- 95
2020-01-16 21:00:00 4.7 2 Nordeste 6 Nordeste 0 -- -- 95
2020-01-16 20:00:00 5.5 4 Norte 6 Norte 0 -- -- 94
2020-01-16 19:00:00 6.6 0 Calma 8 Oeste 0 -- -- 88
2020-01-16 18:00:00 10.7 5 Sudoeste 15 Sudeste 0 -- -- 73
2020-01-16 17:00:00 12.9 9 Sudeste 19 Sudeste 0 -- -- 67
2020-01-16 16:00:00 14.4 6 Sudeste 12 Sudeste 0 -- -- 62
2020-01-16 15:00:00 14.7 4 Norte 13 Noroeste 0 -- -- 62
2020-01-16 14:00:00 15.2 3 Sur 13 Sudeste 0 -- -- 58
2020-01-16 13:00:00 13.6 9 Sudeste 15 Este 0 -- -- 62
2020-01-16 12:00:00 11.3 2 Norte 7 Nordeste 0 -- -- 74
2020-01-16 11:00:00 7.2 0 Calma 5 Sur 0 -- -- 86
2020-01-16 10:00:00 3.4 0 Calma 4 Este 0 -- -- 98
2020-01-16 09:00:00 -0.8 0 Calma 3 Sur 0 -- -- 100
2020-01-16 08:00:00 -0.9 0 Calma 3 Oeste 0 -- -- 100
2020-01-16 07:00:00 -0.1 4 Sudeste 7 Sur 0 -- -- 99
2020-01-16 06:00:00 -0.8 2 Sur 5 Sudoeste 0 -- -- 99
2020-01-16 05:00:00 -0.3 0 Calma 4 Sur 0 -- -- 98
2020-01-16 04:00:00 0.7 2 Sur 6 Sur 0 -- -- 97
2020-01-16 03:00:00 1.1 3 Sur 8 Sur 0 -- -- 97
2020-01-16 02:00:00 0.5 3 Sur 6 Sur 0 -- -- 96
2020-01-16 01:00:00 1 4 Sur 8 Sur 0 -- -- 96
2020-01-16 00:00:00 1.4 3 Sudoeste 8 Sur 0 -- -- 94
2020-01-15 23:00:00 1.5 4 Sur 8 Sudoeste 0 -- -- 95
2020-01-15 22:00:00 2 2 Sur 9 Sudoeste 0 -- -- 94
2020-01-15 21:00:00 2.6 0 Calma 9 Sudoeste 0 -- -- 93
2020-01-15 20:00:00 3.2 6 Sudoeste 9 Sudoeste 0 -- -- 91
2020-01-15 19:00:00 4 0 Calma 5 Sur 0 -- -- 92
2020-01-15 18:00:00 6.9 3 Sur 6 Sur 0 -- -- 82
2020-01-15 17:00:00 11 4 Noroeste 9 Norte 0 -- -- 68
2020-01-15 16:00:00 11.6 5 Norte 17 Sudoeste 0 -- -- 66
2020-01-15 15:00:00 13.1 11 Sudoeste 17 Oeste 0 -- -- 57
2020-01-15 14:00:00 11.1 3 Noroeste 7 Nordeste 0 -- -- 63
2020-01-15 13:00:00 8.6 4 Norte 10 Norte 0 -- -- 69
2020-01-15 12:00:00 8.1 3 Norte 6 Nordeste 0 -- -- 71
2020-01-15 11:00:00 5.7 0 Calma 5 Sudoeste 0 -- -- 78
2020-01-15 10:00:00 0.9 3 Sudoeste 6 Sudoeste 0 -- -- 94
2020-01-15 09:00:00 -2.3 5 Sur 6 Sur 0 -- -- 96
2020-01-15 08:00:00 -1.4 2 Nordeste 7 Norte 0 -- -- 95
2020-01-15 07:00:00 -0.9 2 Nordeste 6 Norte 0 -- -- 95
2020-01-15 06:00:00 -1.4 3 Sur 8 Sur 0 -- -- 96
2020-01-15 05:00:00 -3.1 0 Calma 5 Sur 0 -- -- 96
2020-01-15 04:00:00 -2.9 3 Sur 5 Sur 0 -- -- 96
2020-01-15 03:00:00 -3.7 0 Calma 6 Norte 0 -- -- 94
2020-01-15 02:00:00 -2.1 4 Sur 7 Sur 0 -- -- 94
2020-01-15 01:00:00 -2.9 0 Calma 3 Sur 0 -- -- 95
2020-01-15 00:00:00 -1.8 0 Calma 6 Norte 0 -- -- 96
2020-01-14 23:00:00 -2.2 0 Calma 4 Sur 0 -- -- 94
2020-01-14 22:00:00 -1.6 0 Calma 3 Sudoeste 0 -- -- 97
2020-01-14 21:00:00 -1.1 0 Calma 5 Sudoeste 0 -- -- 97
2020-01-14 20:00:00 -0.7 0 Calma 6 Sur 0 -- -- 96
2020-01-14 19:00:00 0.7 0 Calma 5 Nordeste 0 -- -- 95
2020-01-14 18:00:00 4.2 0 Calma 10 Norte 0 -- -- 87
2020-01-14 17:00:00 8.1 7 Norte 10 Norte 0 -- -- 74
2020-01-14 16:00:00 10.4 7 Noroeste 10 Oeste 0 -- -- 65
2020-01-14 15:00:00 11.1 5 Oeste 13 Oeste 0 -- -- 54
2020-01-14 14:00:00 10.2 8 Oeste 18 Sudoeste 0 -- -- 58
2020-01-14 13:00:00 9.1 6 Sudoeste 15 Oeste 0 -- -- 61
2020-01-14 12:00:00 7.5 3 Sudoeste 7 Sur 0 -- -- 68
2020-01-14 11:00:00 4.2 3 Sur 5 Sur 0 -- -- 93
2020-01-14 10:00:00 -2.4 0 Calma 4 Norte 0 -- -- 98
2020-01-14 09:00:00 -4.9 2 Sur 4 Sur 0 -- -- 97
2020-01-14 08:00:00 -4.7 0 Calma 6 Sur 0 -- -- 96
2020-01-14 07:00:00 -4.3 3 Sur 6 Sur 0 -- -- 98
2020-01-14 06:00:00 -5 0 Calma 5 Este 0 -- -- 97
2020-01-14 05:00:00 -5 2 Sur 7 Noroeste 0 -- -- 98
2020-01-14 04:00:00 -3.4 0 Calma 8 Sur 0 -- -- 97
2020-01-14 03:00:00 -4.6 2 Sudoeste 6 Sudoeste 0 -- -- 98
2020-01-14 02:00:00 -4 5 Sur 7 Sudoeste 0 -- -- 98
2020-01-14 01:00:00 -4.2 0 Calma 3 Norte 0 -- -- 99
2020-01-14 00:00:00 -3.4 0 Calma 5 Sur 0 -- -- 98
2020-01-13 23:00:00 -2.9 0 Calma 9 Sur 0 -- -- 98
2020-01-13 22:00:00 -3.1 3 Sur 6 Sudoeste 0 -- -- 98
2020-01-13 21:00:00 -2.7 0 Calma 6 Nordeste 0 -- -- 98
2020-01-13 20:00:00 -2.6 5 Norte 11 Norte 0 -- -- 97
2020-01-13 19:00:00 -0.7 0 Calma 5 Nordeste 0 -- -- 98
2020-01-13 18:00:00 0.8 0 Calma 9 Norte 0 -- -- 96
2020-01-13 17:00:00 3 7 Norte 13 Norte 0 -- -- 89
2020-01-13 16:00:00 5.5 3 Sur 8 Norte 0 -- -- 82
2020-01-13 15:00:00 4.5 4 Norte 11 Norte 0 -- -- 83
2020-01-13 14:00:00 3.6 6 Norte 10 Norte 0 -- -- 87
2020-01-13 13:00:00 1.7 5 Norte 9 Norte 0 -- -- 91
2020-01-13 12:00:00 2.3 0 Calma 5 Sur 0 -- -- 92
2020-01-13 11:00:00 0.1 0 Calma 5 Norte 0.2 -- -- 95
2020-01-13 10:00:00 -1.8 0 Calma 2 Este 0 -- -- 96
2020-01-13 09:00:00 -4.6 0 Calma 5 Nordeste 0 -- -- 96
2020-01-13 08:00:00 -4.9 0 Calma 3 Sur 0 -- -- 97
2020-01-13 07:00:00 -4.7 2 Sudoeste 4 Sur 0 -- -- 96
2020-01-13 06:00:00 -5.1 0 Calma 3 Sur 0 -- -- 97
2020-01-13 05:00:00 -3.8 3 Sur 6 Sur 0 -- -- 97
2020-01-13 04:00:00 -4.2 3 Sur 4 Sur 0 -- -- 98
2020-01-13 03:00:00 -4.8 0 Calma 2 Oeste 0 -- -- 97
2020-01-13 02:00:00 -4.4 0 Calma 3 Norte 0 -- -- 97
2020-01-13 01:00:00 -4.1 0 Calma 2 Norte 0 -- -- 97
2020-01-13 00:00:00 -3.2 0 Calma 5 Sur 0 -- -- 96
2020-01-12 23:00:00 -3.3 0 Calma 2 Norte 0 -- -- 98
2020-01-12 22:00:00 -2.8 0 Calma 4 Sur 0 -- -- 96
2020-01-12 21:00:00 -0.5 5 Sur 7 Sur 0 -- -- 96
2020-01-12 20:00:00 -1.3 3 Sur 5 Sudoeste 0 -- -- 96
2020-01-12 19:00:00 0.2 0 Calma 5 Norte 0 -- -- 94
2020-01-12 18:00:00 2.1 3 Norte 9 Norte 0 -- -- 87
2020-01-12 17:00:00 6.9 2 Norte 7 Norte 0 -- -- 69
2020-01-12 16:00:00 6.9 3 Norte 12 Norte 0 -- -- 71
2020-01-12 15:00:00 6.9 6 Norte 12 Noroeste 0 -- -- 71
2020-01-12 14:00:00 6.1 4 Norte 8 Norte 0 -- -- 75
2020-01-12 13:00:00 4.5 6 Norte 12 Norte 0 -- -- 84
2020-01-12 12:00:00 5.6 5 Noroeste 10 Oeste 0 -- -- 80
2020-01-12 11:00:00 4.3 4 Sudoeste 7 Sudoeste 0 -- -- 84
2020-01-12 10:00:00 1.9 4 Sudoeste 6 Sudoeste 0 -- -- 92
2020-01-12 09:00:00 -2.6 3 Sur 6 Sudoeste 0 -- -- 98
2020-01-12 08:00:00 -2 4 Sur 9 Sudoeste 0 -- -- 96
2020-01-12 07:00:00 -2 6 Sudoeste 10 Sudoeste 0 -- -- 96
2020-01-12 06:00:00 -2.7 3 Sur 6 Sur 0 -- -- 96
2020-01-12 05:00:00 -2.5 3 Sudoeste 8 Sur 0 -- -- 95
2020-01-12 04:00:00 -2.2 5 Sudoeste 8 Sur 0 -- -- 95
2020-01-12 03:00:00 -1.5 4 Sur 6 Sur 0 -- -- 96
2020-01-12 02:00:00 -1.4 4 Sudoeste 6 Sudoeste 0 -- -- 96
2020-01-12 01:00:00 -1.3 4 Sur 8 Sur 0 -- -- 96
2020-01-12 00:00:00 -1.2 3 Sur 7 Sur 0 -- -- 96
2020-01-11 23:00:00 -1.2 3 Sudoeste 8 Sur 0 -- -- 95
2020-01-11 22:00:00 -0.9 3 Sudoeste 6 Sur 0 -- -- 94
2020-01-11 21:00:00 0.1 3 Sudoeste 8 Sur 0 -- -- 93
2020-01-11 20:00:00 0.8 6 Sur 9 Sur 0 -- -- 90
2020-01-11 19:00:00 1.8 0 Calma 6 Sur 0 -- -- 84
2020-01-11 18:00:00 5.8 0 Calma 10 Oeste 0 -- -- 73
2020-01-11 17:00:00 10.4 6 Noroeste 19 Noroeste 0 -- -- 59
2020-01-11 16:00:00 11.2 11 Noroeste 17 Noroeste 0 -- -- 55
2020-01-11 15:00:00 11.2 10 Noroeste 21 Noroeste 0 -- -- 56
2020-01-11 14:00:00 10.9 9 Noroeste 16 Noroeste 0 -- -- 58
2020-01-11 13:00:00 9.5 9 Oeste 16 Oeste 0 -- -- 68
2020-01-11 12:00:00 7.9 5 Noroeste 10 Noroeste 0 -- -- 73
2020-01-11 11:00:00 6 2 Sudoeste 5 Sudoeste 0 -- -- 80
2020-01-11 10:00:00 1.5 2 Sur 8 Sur 0 -- -- 94
2020-01-11 09:00:00 -1.7 5 Sur 7 Sur 0 -- -- 98
2020-01-11 08:00:00 -2.1 5 Sudoeste 7 Sur 0 -- -- 98
2020-01-11 07:00:00 -2.2 5 Sudoeste 7 Sur 0 -- -- 97
2020-01-11 06:00:00 -1.9 5 Sudoeste 9 Sur 0 -- -- 97
2020-01-11 05:00:00 -2.1 4 Sudoeste 7 Sudoeste 0 -- -- 98
2020-01-11 04:00:00 -1.9 4 Sur 7 Sudoeste 0 -- -- 98
2020-01-11 03:00:00 -1.7 2 Sur 8 Sur 0 -- -- 97
2020-01-11 02:00:00 -1.2 3 Sudoeste 9 Sudoeste 0 -- -- 96
2020-01-11 01:00:00 -0.7 2 Sur 7 Sur 0 -- -- 97
2020-01-11 00:00:00 -0.5 2 Sudeste 8 Sur 0 -- -- 96
2020-01-10 23:00:00 0.7 5 Sudoeste 7 Sudoeste 0 -- -- 95
2020-01-10 22:00:00 1.1 6 Sudoeste 8 Sur 0 -- -- 93
2020-01-10 21:00:00 1.8 5 Sur 9 Sudoeste 0 -- -- 92
2020-01-10 20:00:00 3.9 0 Calma 10 Sur 0 -- -- 90
2020-01-10 19:00:00 5 3 Sudoeste 6 Oeste 0 -- -- 84
2020-01-10 18:00:00 7.7 4 Norte 28 Norte 0 -- -- 76
2020-01-10 17:00:00 10 20 Norte 41 Norte 0 -- -- 70
2020-01-10 16:00:00 10.9 23 Norte 42 Norte 0 -- -- 68
2020-01-10 15:00:00 11.1 23 Norte 38 Norte 0 -- -- 67
2020-01-10 14:00:00 10.6 26 Norte 39 Norte 0 -- -- 67
2020-01-10 13:00:00 10.4 22 Norte 33 Norte 0 -- -- 68
2020-01-10 12:00:00 9.6 21 Norte 46 Norte 0 -- -- 72
2020-01-10 11:00:00 8.6 20 Norte 33 Norte 0 -- -- 74
2020-01-10 10:00:00 6.9 24 Norte 35 Norte 0 -- -- 81
2020-01-10 09:00:00 3.1 5 Norte 21 Norte 0 -- -- 99
2020-01-10 08:00:00 3.5 2 Sur 21 Noroeste 0 -- -- 97
2020-01-10 07:00:00 5 9 Noroeste 36 Norte 0 -- -- 100
2020-01-10 06:00:00 6 23 Norte 43 Norte 0 -- -- 100
2020-01-10 05:00:00 3.1 4 Sudoeste 9 Sudoeste 0 -- -- 100
2020-01-10 04:00:00 2.8 4 Sur 6 Sur 0.2 -- -- 100
2020-01-10 03:00:00 2.8 3 Sudoeste 5 Sudoeste 0.2 -- -- 100
2020-01-10 02:00:00 2.6 2 Noroeste 7 Oeste 0.2 -- -- 100
2020-01-10 01:00:00 2.4 4 Norte 9 Noroeste 0 -- -- 100
2020-01-10 00:00:00 2.5 4 Noroeste 13 Noroeste 0 -- -- 100
2020-01-09 23:00:00 2.5 0 Calma 7 Noroeste 0 -- -- 100
2020-01-09 22:00:00 2.9 3 Noroeste 6 Noroeste 0 -- -- 100
2020-01-09 21:00:00 3.2 3 Noroeste 6 Noroeste 0 -- -- 100
2020-01-09 20:00:00 3.4 2 Norte 6 Norte 0 -- -- 100
2020-01-09 19:00:00 3.6 5 Norte 10 Norte 0 -- -- 100
2020-01-09 18:00:00 4.2 2 Nordeste 11 Noroeste 0 -- -- 100
2020-01-09 17:00:00 4.9 5 Norte 13 Norte 0 -- -- 100
2020-01-09 16:00:00 5 2 Oeste 14 Sudoeste 0 -- -- 100
2020-01-09 15:00:00 6.1 7 Oeste 14 Noroeste 0 -- -- 100
2020-01-09 14:00:00 4.8 5 Este 9 Este 0 -- -- 100
2020-01-09 13:00:00 3.2 3 Norte 8 Sudoeste 0 -- -- 100
2020-01-09 12:00:00 2.9 4 Noroeste 10 Noroeste 0 -- -- 100
2020-01-09 11:00:00 1.4 3 Sudeste 5 Sudeste 0 -- -- 100
2020-01-09 10:00:00 0.5 0 Calma 3 Sudoeste 0.2 -- -- 100
2020-01-09 09:00:00 -0.1 2 Sur 6 Sudoeste 0 -- -- 100
2020-01-09 08:00:00 -0.2 2 Oeste 6 Sudoeste 0 -- -- 100
2020-01-09 07:00:00 0 4 Sudoeste 5 Sudoeste 0 -- -- 100
2020-01-09 06:00:00 -0.1 2 Sudoeste 4 Sudeste 0 -- -- 100
2020-01-09 05:00:00 -0.4 0 Calma 7 Sudeste 0 -- -- 100
2020-01-09 04:00:00 -0.3 0 Calma 4 Oeste 0 -- -- 100
2020-01-09 03:00:00 0.2 0 Calma 3 Sudoeste 0 -- -- 100
2020-01-09 02:00:00 0.4 0 Calma 5 Sudoeste 0 -- -- 100
2020-01-09 01:00:00 0.4 2 Sudoeste 6 Oeste 0 -- -- 100
2020-01-09 00:00:00 0.5 3 Sudoeste 5 Sudoeste 0 -- -- 100
2020-01-08 23:00:00 0 0 Calma 3 Sudoeste 0 -- -- 100
2020-01-08 22:00:00 0.6 0 Calma 11 Nordeste 0 -- -- 100
2020-01-08 21:00:00 3 4 Este 9 Este 0 -- -- 100
2020-01-08 20:00:00 3.4 0 Calma 7 Nordeste 0 -- -- 100
2020-01-08 19:00:00 3.7 3 Nordeste 6 Oeste 0 -- -- 100
2020-01-08 18:00:00 3.8 4 Oeste 9 Oeste 0 -- -- 100
2020-01-08 17:00:00 4.4 3 Noroeste 8 Norte 0 -- -- 99
2020-01-08 16:00:00 4.9 3 Sudoeste 8 Sur 0 -- -- 100
2020-01-08 15:00:00 5.1 4 Sudoeste 7 Sudoeste 0 -- -- 99
2020-01-08 14:00:00 5 2 Sur 5 Sur 0 -- -- 100
2020-01-08 13:00:00 3.5 2 Noroeste 5 Noroeste 0 -- -- 100
2020-01-08 12:00:00 2.7 0 Calma 7 Sudoeste 0 -- -- 100
2020-01-08 11:00:00 2.1 4 Sudoeste 9 Sur 0 -- -- 100
2020-01-08 10:00:00 2.2 0 Calma 7 Sur 0 -- -- 100
2020-01-08 09:00:00 1.7 4 Sudeste 7 Sur 0 -- -- 100
2020-01-08 08:00:00 2 0 Calma 4 Sudoeste 0 -- -- 100
2020-01-08 07:00:00 1.8 0 Calma 4 Norte 0 -- -- 100
2020-01-08 06:00:00 1.7 0 Calma 3 Noroeste 0 -- -- 100
2020-01-08 05:00:00 1.4 0 Calma 4 Sudoeste 0.2 -- -- 100
2020-01-08 04:00:00 1 3 Sudoeste 5 Sudoeste 0 -- -- 100
2020-01-08 03:00:00 1.1 3 Oeste 6 Sudoeste 0 -- -- 100
2020-01-08 02:00:00 1.1 4 Sudeste 6 Este 0 -- -- 100
2020-01-08 01:00:00 0.6 0 Calma 6 Este 0 -- -- 100
2020-01-08 00:00:00 1.1 0 Calma 3 Sur 0 -- -- 100
2020-01-07 23:00:00 1.2 2 Sur 4 Oeste 0 -- -- 100
2020-01-07 22:00:00 1.2 3 Sur 5 Sudoeste 0 -- -- 100
2020-01-07 21:00:00 1.6 0 Calma 3 Este 0 -- -- 100
2020-01-07 20:00:00 1.8 0 Calma 5 Nordeste 0 -- -- 100
2020-01-07 19:00:00 2.1 0 Calma 5 Norte 0 -- -- 100
2020-01-07 18:00:00 2.5 4 Norte 9 Norte 0 -- -- 100
2020-01-07 17:00:00 3.9 6 Norte 9 Nordeste 0 -- -- 100
2020-01-07 16:00:00 3.8 2 Norte 8 Nordeste 0 -- -- 100
2020-01-07 15:00:00 2.9 0 Calma 5 Este 0 -- -- 100
2020-01-07 14:00:00 2 3 Norte 8 Norte 0 -- -- 100
2020-01-07 13:00:00 1.7 2 Nordeste 9 Norte 0 -- -- 100
2020-01-07 12:00:00 1.6 4 Noroeste 7 Noroeste 0 -- -- 100
2020-01-07 11:00:00 1 0 Calma 5 Norte 0 -- -- 100
2020-01-07 10:00:00 0.6 3 Nordeste 6 Nordeste 0 -- -- 100
2020-01-07 09:00:00 0.4 2 Este 4 Este 0 -- -- 100
2020-01-07 08:00:00 0.4 0 Calma 6 Nordeste 0 -- -- 100
2020-01-07 07:00:00 0.6 4 Nordeste 9 Norte 0 -- -- 100
2020-01-07 06:00:00 0.7 4 Norte 8 Nordeste 0 -- -- 100
2020-01-07 05:00:00 1 3 Nordeste 6 Este 0 -- -- 100
2020-01-07 04:00:00 1.1 0 Calma 7 Este 0 -- -- 100
2020-01-07 03:00:00 1.2 0 Calma 4 Este 0 -- -- 100
2020-01-07 02:00:00 1.3 0 Calma 6 Norte 0.2 -- -- 100
2020-01-07 01:00:00 1.2 0 Calma 6 Oeste 0 -- -- 100
2020-01-07 00:00:00 1.4 3 Sudoeste 9 Oeste 0 -- -- 100
2020-01-06 23:00:00 1.2 4 Oeste 9 Sudoeste 0 -- -- 100
2020-01-06 22:00:00 0.9 4 Sudoeste 9 Sudoeste 0 -- -- 100
2020-01-06 21:00:00 0.6 3 Sudoeste 6 Sudoeste 0 -- -- 100
2020-01-06 20:00:00 1 0 Calma 7 Norte 0 -- -- 100
2020-01-06 19:00:00 1.1 3 Este 5 Este 0 -- -- 100
2020-01-06 18:00:00 1.5 2 Este 6 Nordeste 0 -- -- 100
2020-01-06 17:00:00 1.7 0 Calma 8 Oeste 0 -- -- 100
2020-01-06 16:00:00 2.3 3 Oeste 7 Noroeste 0 -- -- 99
2020-01-06 15:00:00 2.1 3 Norte 6 Norte 0 -- -- 100
2020-01-06 14:00:00 1.9 2 Nordeste 6 Norte 0 -- -- 99
2020-01-06 13:00:00 1.6 3 Norte 7 Norte 0 -- -- 99
2020-01-06 12:00:00 1 3 Este 6 Nordeste 0.2 -- -- 100
2020-01-06 11:00:00 0.1 0 Calma 2 Nordeste 0 -- -- 99
2020-01-06 10:00:00 -0.4 0 Calma 3 Sudeste 0 -- -- 99